createdAt,value
2023-01-19T00:01:59.499Z,6.47
2023-01-19T00:04:47.152Z,6.95
2023-01-19T00:07:34.765Z,7.32
2023-01-19T00:10:23.809Z,7.50
2023-01-19T00:13:11.366Z,7.05
2023-01-19T00:15:58.877Z,7.55
2023-01-19T00:18:46.272Z,7.22
2023-01-19T00:21:33.819Z,7.28
2023-01-19T00:24:21.379Z,7.20
2023-01-19T00:27:10.100Z,7.82
2023-01-19T00:29:57.582Z,7.72
2023-01-19T00:32:45.210Z,7.53
2023-01-19T00:35:32.846Z,7.07
2023-01-19T00:38:20.199Z,7.15
2023-01-19T00:41:07.508Z,8.32
2023-01-19T00:43:55.076Z,7.72
2023-01-19T00:46:42.528Z,8.30
2023-01-19T00:49:30.081Z,6.28
2023-01-19T00:52:17.645Z,7.07
2023-01-19T00:55:05.994Z,7.35
2023-01-19T00:57:53.469Z,8.52
2023-01-19T01:00:42.515Z,8.77
2023-01-19T01:03:29.925Z,7.30
2023-01-19T01:06:17.586Z,6.95
2023-01-19T01:09:12.614Z,7.45
2023-01-19T01:12:03.402Z,6.70
2023-01-19T01:14:56.466Z,6.67
2023-01-19T01:17:53.451Z,7.13
2023-01-19T01:20:43.686Z,7.93
2023-01-19T01:23:32.930Z,7.97
2023-01-19T01:26:23.117Z,6.53
2023-01-19T01:29:13.214Z,6.88
2023-01-19T01:32:03.249Z,6.85
2023-01-19T01:34:54.899Z,6.90
2023-01-19T01:37:45.275Z,7.50
2023-01-19T01:40:35.429Z,7.18
2023-01-19T01:43:25.719Z,6.50
2023-01-19T01:46:16.289Z,8.50
2023-01-19T01:49:08.192Z,7.10
2023-01-19T01:51:57.194Z,6.90
2023-01-19T01:54:45.090Z,6.30
2023-01-19T01:57:32.700Z,6.93
2023-01-19T02:00:20.520Z,6.80
2023-01-19T02:03:07.089Z,6.20
2023-01-19T02:05:57.698Z,6.05
2023-01-19T02:09:09.154Z,6.55
2023-01-19T02:12:14.128Z,5.95
2023-01-19T02:15:01.422Z,7.28
2023-01-19T02:17:50.206Z,6.75
2023-01-19T02:20:39.021Z,6.80
2023-01-19T02:23:39.174Z,7.72
2023-01-19T02:26:29.909Z,6.35
2023-01-19T02:29:20.115Z,6.97
2023-01-19T02:32:08.228Z,7.20
2023-01-19T02:34:56.294Z,6.97
2023-01-19T02:37:45.509Z,5.95
2023-01-19T02:40:34.526Z,5.97
2023-01-19T02:43:22.937Z,6.25
2023-01-19T02:46:10.267Z,6.60
2023-01-19T02:49:00.041Z,6.50
2023-01-19T02:51:47.668Z,5.82
2023-01-19T02:54:47.799Z,6.75
2023-01-19T02:57:53.887Z,7.38
2023-01-19T03:00:50.682Z,6.28
2023-01-19T03:03:46.832Z,6.30
2023-01-19T03:06:43.610Z,6.72
2023-01-19T03:09:38.490Z,6.22
2023-01-19T03:12:33.381Z,6.80
2023-01-19T03:15:27.544Z,5.88
2023-01-19T03:21:06.736Z,6.68
2023-01-19T03:23:57.372Z,5.78
2023-01-19T03:26:48.348Z,5.90
2023-01-19T03:29:36.135Z,7.47
2023-01-19T03:32:30.271Z,6.78
2023-01-19T03:35:20.643Z,6.82
2023-01-19T03:38:13.866Z,6.43
2023-01-19T03:41:03.879Z,7.13
2023-01-19T03:43:52.806Z,5.72
2023-01-19T03:46:40.986Z,6.15
2023-01-19T03:49:31.981Z,6.00
2023-01-19T03:52:19.572Z,4.82
2023-01-19T03:55:07.950Z,6.05
2023-01-19T03:57:55.319Z,6.38
2023-01-19T04:00:42.724Z,5.80
2023-01-19T04:03:30.371Z,5.72
2023-01-19T04:06:20.475Z,6.10
2023-01-19T04:09:08.205Z,4.93
2023-01-19T04:11:55.966Z,6.28
2023-01-19T04:14:43.432Z,6.20
2023-01-19T04:17:32.372Z,5.00
2023-01-19T04:20:20.154Z,7.00
2023-01-19T04:23:08.797Z,4.75
2023-01-19T04:25:58.824Z,6.47
2023-01-19T04:28:46.128Z,6.07
2023-01-19T04:31:35.628Z,5.20
2023-01-19T04:34:22.982Z,5.72
2023-01-19T04:37:10.841Z,5.53
2023-01-19T04:39:59.511Z,4.90
2023-01-19T04:42:47.684Z,5.22
2023-01-19T04:45:36.637Z,4.57
2023-01-19T04:48:24.053Z,5.13
2023-01-19T04:51:11.862Z,6.22
2023-01-19T04:53:59.213Z,5.18
2023-01-19T04:56:48.167Z,5.63
2023-01-19T04:59:35.778Z,6.07
2023-01-19T05:02:23.895Z,5.93
2023-01-19T05:05:11.821Z,6.40
2023-01-19T05:07:59.114Z,7.07
2023-01-19T05:10:46.482Z,6.75
2023-01-19T05:13:34.892Z,6.57
2023-01-19T05:16:22.447Z,5.45
2023-01-19T05:19:10.355Z,6.13
2023-01-19T05:21:57.962Z,5.30
2023-01-19T05:24:45.358Z,6.47
2023-01-19T05:27:32.688Z,6.43
2023-01-19T05:30:21.512Z,6.28
2023-01-19T05:33:08.456Z,6.15
2023-01-19T05:35:56.636Z,4.68
2023-01-19T05:38:44.307Z,5.78
2023-01-19T05:41:31.879Z,5.38
2023-01-19T05:44:19.626Z,6.30
2023-01-19T05:47:08.611Z,6.55
2023-01-19T05:49:56.335Z,6.80
2023-01-19T05:52:43.901Z,6.38
2023-01-19T05:55:31.356Z,5.93
2023-01-19T05:58:18.390Z,6.10
2023-01-19T06:01:08.453Z,6.30
2023-01-19T06:03:57.231Z,6.07
2023-01-19T06:06:45.064Z,6.47
2023-01-19T06:09:32.649Z,5.15
2023-01-19T06:12:20.072Z,5.18
2023-01-19T06:15:08.597Z,6.05
2023-01-19T06:17:56.012Z,5.60
2023-01-19T06:20:45.085Z,5.93
2023-01-19T06:23:33.839Z,4.22
2023-01-19T06:26:21.416Z,5.53
2023-01-19T06:29:10.155Z,5.65
2023-01-19T06:31:57.391Z,4.68
2023-01-19T06:34:44.683Z,3.60
2023-01-19T06:37:33.723Z,4.28
2023-01-19T06:40:21.206Z,3.65
2023-01-19T06:43:08.998Z,4.05
2023-01-19T06:45:57.268Z,3.90
2023-01-19T06:48:44.566Z,2.60
2023-01-19T06:51:32.109Z,2.97
2023-01-19T06:54:21.068Z,3.53
2023-01-19T06:57:08.414Z,3.00
2023-01-19T06:59:55.924Z,3.40
2023-01-19T07:02:44.002Z,3.58
2023-01-19T07:05:31.414Z,3.90
2023-01-19T07:08:18.776Z,2.75
2023-01-19T07:11:26.519Z,3.65
2023-01-19T07:14:16.544Z,3.45
2023-01-19T07:17:03.556Z,2.80
2023-01-19T07:19:50.610Z,3.10
2023-01-19T07:22:38.178Z,2.33
2023-01-19T07:25:26.963Z,2.83
2023-01-19T07:28:16.607Z,2.75
2023-01-19T07:31:04.540Z,2.95
2023-01-19T07:33:51.908Z,2.88
2023-01-19T07:36:39.502Z,3.03
2023-01-19T07:39:27.186Z,2.67
2023-01-19T07:42:15.053Z,3.42
2023-01-19T07:45:04.321Z,2.55
2023-01-19T07:47:51.808Z,2.92
2023-01-19T07:50:39.178Z,3.30
2023-01-19T07:53:26.714Z,3.10
2023-01-19T07:56:14.739Z,3.55
2023-01-19T07:59:02.007Z,3.40
2023-01-19T08:01:51.188Z,3.80
2023-01-19T08:04:38.871Z,4.75
2023-01-19T08:07:26.355Z,5.53
2023-01-19T08:10:14.549Z,7.05
2023-01-19T08:13:02.294Z,7.47
2023-01-19T08:15:51.576Z,7.03
2023-01-19T08:18:40.421Z,8.00
2023-01-19T08:21:29.175Z,8.32
2023-01-19T08:24:21.447Z,8.98
2023-01-19T08:27:09.950Z,7.80
2023-01-19T08:29:58.922Z,7.70
2023-01-19T08:32:46.192Z,7.05
2023-01-19T08:35:37.554Z,8.93
2023-01-19T08:38:25.224Z,7.47
2023-01-19T08:41:12.951Z,8.70
2023-01-19T08:44:00.268Z,8.23
2023-01-19T08:46:47.637Z,11.60
2023-01-19T08:49:35.602Z,11.77
2023-01-19T08:52:26.649Z,10.15
2023-01-19T08:55:14.365Z,46.00
2023-01-19T08:58:04.255Z,13.23
2023-01-19T09:00:52.761Z,8.55
2023-01-19T09:03:40.204Z,9.20
2023-01-19T09:06:28.515Z,10.00
2023-01-19T09:09:17.323Z,9.88
2023-01-19T09:12:05.403Z,9.75
2023-01-19T09:14:53.090Z,9.70
2023-01-19T09:17:41.055Z,9.15
2023-01-19T09:20:28.526Z,10.15
2023-01-19T09:23:17.727Z,9.30
2023-01-19T09:26:07.545Z,10.65
2023-01-19T09:28:54.923Z,11.52
2023-01-19T09:31:44.201Z,11.98
2023-01-19T09:34:32.265Z,9.95
2023-01-19T09:37:19.734Z,9.20
2023-01-19T09:40:11.190Z,9.93
2023-01-19T09:43:12.657Z,10.90
2023-01-19T09:46:02.010Z,10.18
2023-01-19T09:48:53.297Z,13.15
2023-01-19T09:51:44.795Z,12.75
2023-01-19T09:54:41.180Z,11.75
2023-01-19T09:57:30.118Z,12.45
2023-01-19T10:00:20.177Z,10.68
2023-01-19T10:03:15.584Z,10.30
2023-01-19T10:06:07.181Z,12.02
2023-01-19T10:09:04.164Z,11.75
2023-01-19T10:11:58.797Z,11.63
2023-01-19T10:14:53.086Z,9.75
2023-01-19T10:17:50.438Z,10.30
2023-01-19T10:20:41.867Z,8.80
2023-01-19T10:23:35.385Z,8.05
2023-01-19T10:26:24.858Z,8.77
2023-01-19T10:29:23.063Z,10.57
2023-01-19T10:32:13.174Z,10.68
2023-01-19T10:35:03.594Z,13.23
2023-01-19T10:37:51.634Z,10.18
2023-01-19T10:40:47.885Z,12.05
2023-01-19T10:43:41.612Z,11.38
2023-01-19T10:46:35.911Z,12.32
2023-01-19T10:52:29.918Z,10.88
2023-01-19T10:55:26.276Z,9.25
2023-01-19T10:58:30.102Z,11.00
2023-01-19T11:01:20.226Z,9.02
2023-01-19T11:04:22.416Z,12.02
2023-01-19T11:07:16.222Z,9.55
2023-01-19T11:10:22.888Z,11.60
2023-01-19T11:13:15.730Z,12.07
2023-01-19T11:16:07.724Z,14.18
2023-01-19T11:18:57.270Z,14.00
2023-01-19T11:21:44.654Z,15.35
2023-01-19T11:24:32.675Z,9.90
2023-01-19T11:27:22.644Z,14.45
2023-01-19T11:30:20.456Z,13.55
2023-01-19T11:33:23.253Z,16.13
2023-01-19T11:36:17.620Z,14.32
2023-01-19T11:39:21.549Z,14.77
2023-01-19T11:42:13.913Z,14.07
2023-01-19T11:45:05.267Z,15.05
2023-01-19T11:47:52.963Z,14.57
2023-01-19T11:50:43.370Z,13.98
2023-01-19T11:53:34.823Z,14.35
2023-01-19T11:56:28.270Z,16.75
2023-01-19T11:59:16.146Z,14.60
2023-01-19T12:02:18.272Z,16.20
2023-01-19T12:05:08.566Z,16.85
2023-01-19T12:07:56.314Z,12.98
2023-01-19T12:10:48.316Z,18.08
2023-01-19T12:13:37.557Z,15.48
2023-01-19T12:16:28.971Z,14.48
2023-01-19T12:19:20.688Z,16.17
2023-01-19T12:22:12.520Z,15.45
2023-01-19T12:25:06.970Z,18.25
2023-01-19T12:27:55.180Z,18.08
2023-01-19T12:30:43.127Z,16.40
2023-01-19T12:33:35.981Z,17.23
2023-01-19T12:36:38.779Z,17.65
2023-01-19T12:39:27.023Z,17.23
2023-01-19T12:42:15.611Z,16.70
2023-01-19T12:45:08.645Z,17.35
2023-01-19T12:47:56.911Z,15.43
2023-01-19T12:50:47.230Z,15.68
2023-01-19T12:53:36.086Z,16.65
2023-01-19T12:56:30.917Z,19.13
2023-01-19T12:59:26.666Z,18.60
2023-01-19T13:02:41.976Z,22.65
2023-01-19T13:05:52.469Z,17.38
2023-01-19T13:09:01.129Z,17.10
2023-01-19T13:12:20.413Z,16.83
2023-01-19T13:15:34.645Z,17.20
2023-01-19T13:18:24.313Z,14.93
2023-01-19T13:21:13.393Z,15.02
2023-01-19T13:24:04.345Z,16.45
2023-01-19T13:26:58.983Z,16.27
2023-01-19T13:29:47.094Z,16.35
2023-01-19T13:32:34.879Z,17.75
2023-01-19T13:35:24.425Z,15.15
2023-01-19T13:38:14.402Z,16.73
2023-01-19T13:41:04.256Z,15.93
2023-01-19T13:43:59.837Z,15.45
2023-01-19T13:46:48.362Z,15.15
2023-01-19T13:49:40.362Z,18.45
2023-01-19T13:52:28.564Z,18.52
2023-01-19T13:55:17.329Z,17.77
2023-01-19T13:58:20.688Z,17.92
2023-01-19T14:01:08.581Z,15.98
2023-01-19T14:03:56.098Z,16.35
2023-01-19T14:06:49.627Z,15.15
2023-01-19T14:09:37.383Z,14.38
2023-01-19T14:12:25.778Z,14.85
2023-01-19T14:15:14.474Z,16.92
2023-01-19T14:18:12.242Z,14.40
2023-01-19T14:21:02.851Z,15.95
2023-01-19T14:23:52.182Z,13.52
2023-01-19T14:26:48.132Z,15.52
2023-01-19T14:29:37.943Z,15.00
2023-01-19T14:32:27.865Z,14.90
2023-01-19T14:35:24.356Z,14.57
2023-01-19T14:38:15.978Z,15.82
2023-01-19T14:41:03.539Z,14.63
2023-01-19T14:43:51.288Z,14.98
2023-01-19T14:46:39.687Z,15.57
2023-01-19T14:49:34.651Z,15.52
2023-01-19T14:52:26.120Z,16.80
2023-01-19T14:55:21.553Z,16.33
2023-01-19T14:58:13.304Z,15.68
2023-01-19T15:01:01.290Z,16.10
2023-01-19T15:03:48.792Z,16.52
2023-01-19T15:06:41.402Z,15.77
2023-01-19T15:09:29.216Z,15.85
2023-01-19T15:12:17.941Z,16.15
2023-01-19T15:15:06.567Z,14.05
2023-01-19T15:17:56.341Z,14.75
2023-01-19T15:20:43.855Z,16.08
2023-01-19T15:23:33.933Z,16.10
2023-01-19T15:26:23.263Z,14.55
2023-01-19T15:29:19.200Z,14.48
2023-01-19T15:32:07.860Z,14.48
2023-01-19T15:34:55.434Z,13.43
2023-01-19T15:37:42.899Z,13.32
2023-01-19T15:40:32.854Z,12.93
2023-01-19T15:43:21.098Z,11.82
2023-01-19T15:46:08.878Z,12.30
2023-01-19T15:48:56.361Z,10.98
2023-01-19T15:51:43.844Z,9.13
2023-01-19T15:54:31.510Z,11.98
2023-01-19T15:57:20.424Z,14.10
2023-01-19T16:00:09.020Z,13.25
2023-01-19T16:02:56.499Z,12.55
2023-01-19T16:05:43.966Z,13.20
2023-01-19T16:08:31.233Z,12.23
2023-01-19T16:11:19.156Z,11.00
2023-01-19T16:14:07.947Z,11.23
2023-01-19T16:16:55.613Z,11.60
2023-01-19T16:19:43.108Z,11.57
2023-01-19T16:22:30.909Z,12.10
2023-01-19T16:25:18.327Z,10.45
2023-01-19T16:28:05.993Z,10.65
2023-01-19T16:30:55.032Z,12.57
2023-01-19T16:33:42.394Z,11.15
2023-01-19T16:36:32.010Z,12.32
2023-01-19T16:39:19.581Z,11.68
2023-01-19T16:42:07.093Z,13.25
2023-01-19T16:44:54.659Z,12.10
2023-01-19T16:47:45.425Z,13.68
2023-01-19T16:50:32.675Z,13.18
2023-01-19T16:53:20.298Z,13.80
2023-01-19T16:56:08.660Z,12.63
2023-01-19T16:58:56.389Z,13.38
2023-01-19T17:01:45.051Z,14.25
2023-01-19T17:04:33.757Z,15.23
2023-01-19T17:07:21.132Z,15.25
2023-01-19T17:10:10.542Z,17.67
2023-01-19T17:12:59.882Z,17.15
2023-01-19T17:15:47.731Z,15.63
2023-01-19T17:18:36.853Z,14.45
2023-01-19T17:21:25.982Z,16.63
2023-01-19T17:24:13.990Z,14.70
2023-01-19T17:27:01.670Z,14.68
2023-01-19T17:29:50.789Z,16.05
2023-01-19T17:32:38.182Z,15.07
2023-01-19T17:35:25.582Z,16.55
2023-01-19T17:38:15.004Z,14.85
2023-01-19T17:41:02.942Z,15.43
2023-01-19T17:43:51.443Z,15.68
2023-01-19T17:46:39.302Z,15.63
2023-01-19T17:49:26.590Z,15.13
2023-01-19T17:52:14.119Z,16.63
2023-01-19T17:55:03.893Z,16.17
2023-01-19T17:57:51.117Z,14.95
2023-01-19T18:00:38.740Z,15.93
2023-01-19T18:03:26.342Z,14.52
2023-01-19T18:06:14.510Z,14.88
2023-01-19T18:09:01.772Z,11.98
2023-01-19T18:11:50.666Z,13.75
2023-01-19T18:14:38.031Z,12.77
2023-01-19T18:17:25.546Z,13.55
2023-01-19T18:20:13.900Z,11.93
2023-01-19T18:23:01.617Z,12.75
2023-01-19T18:25:48.996Z,14.13
2023-01-19T18:28:38.150Z,12.35
2023-01-19T18:31:26.968Z,13.13
2023-01-19T18:34:14.337Z,12.18
2023-01-19T18:37:01.941Z,12.60
2023-01-19T18:39:49.378Z,13.68
2023-01-19T18:42:36.873Z,12.27
2023-01-19T18:45:25.905Z,13.07
2023-01-19T18:48:13.596Z,11.30
2023-01-19T18:51:05.825Z,13.10
2023-01-19T18:53:53.110Z,12.25
2023-01-19T18:56:40.712Z,12.57
2023-01-19T18:59:28.621Z,11.93
2023-01-19T19:02:17.730Z,12.15
2023-01-19T19:05:05.694Z,12.95
2023-01-19T19:07:52.941Z,12.15
2023-01-19T19:10:41.642Z,11.65
2023-01-19T19:13:29.113Z,11.13
2023-01-19T19:16:16.645Z,13.15
2023-01-19T19:19:05.424Z,12.30
2023-01-19T19:21:53.700Z,11.27
2023-01-19T19:24:41.375Z,12.20
2023-01-19T19:27:28.974Z,12.93
2023-01-19T19:30:17.045Z,11.38
2023-01-19T19:33:04.753Z,12.07
2023-01-19T19:35:59.023Z,12.02
2023-01-19T19:41:37.363Z,10.65
2023-01-19T19:44:24.513Z,12.40
2023-01-19T19:47:11.901Z,9.82
2023-01-19T19:50:00.435Z,10.02
2023-01-19T19:52:49.101Z,10.32
2023-01-19T19:55:36.615Z,10.80
2023-01-19T19:58:24.192Z,9.45
2023-01-19T20:01:13.893Z,11.00
2023-01-19T20:04:07.134Z,10.43
2023-01-19T20:06:54.454Z,9.88
2023-01-19T20:09:45.285Z,10.95
2023-01-19T20:12:32.949Z,10.98
2023-01-19T20:15:20.433Z,10.02
2023-01-19T20:18:07.988Z,10.63
2023-01-19T20:20:55.587Z,9.73
2023-01-19T20:23:43.408Z,10.75
2023-01-19T20:26:34.230Z,9.45
2023-01-19T20:29:21.960Z,10.55
2023-01-19T20:32:10.738Z,10.13
2023-01-19T20:34:58.035Z,9.90
2023-01-19T20:37:45.593Z,9.95
2023-01-19T20:40:33.102Z,10.75
2023-01-19T20:43:22.237Z,9.30
2023-01-19T20:46:09.696Z,9.70
2023-01-19T20:48:57.261Z,9.73
2023-01-19T20:51:46.929Z,9.73
2023-01-19T20:54:34.286Z,9.82
2023-01-19T20:57:21.922Z,9.05
2023-01-19T21:00:12.786Z,9.27
2023-01-19T21:03:00.298Z,9.52
2023-01-19T21:05:48.506Z,10.32
2023-01-19T21:08:36.520Z,9.90
2023-01-19T21:11:24.077Z,9.68
2023-01-19T21:14:11.340Z,9.73
2023-01-19T21:17:00.249Z,9.85
2023-01-19T21:19:48.382Z,10.02
2023-01-19T21:22:35.834Z,10.35
2023-01-19T21:25:23.526Z,10.18
2023-01-19T21:28:10.853Z,9.65
2023-01-19T21:30:58.498Z,10.82
2023-01-19T21:33:49.198Z,9.38
2023-01-19T21:36:36.498Z,9.63
2023-01-19T21:39:24.059Z,11.43
2023-01-19T21:42:11.410Z,10.50
2023-01-19T21:44:59.101Z,10.38
2023-01-19T21:47:46.577Z,9.85
2023-01-19T21:50:35.863Z,11.20
2023-01-19T21:53:23.352Z,9.40
2023-01-19T21:56:11.939Z,10.52
2023-01-19T21:59:02.290Z,12.00
2023-01-19T22:01:49.876Z,11.38
2023-01-19T22:04:37.253Z,10.55
2023-01-19T22:07:26.257Z,9.90
2023-01-19T22:10:13.631Z,10.50
2023-01-19T22:13:01.266Z,9.68
2023-01-19T22:15:48.935Z,10.85
2023-01-19T22:18:36.524Z,10.95
2023-01-19T22:21:25.297Z,10.55
2023-01-19T22:24:13.985Z,10.40
2023-01-19T22:27:01.778Z,10.77
2023-01-19T22:29:49.487Z,11.15
2023-01-19T22:32:36.954Z,11.32
2023-01-19T22:35:24.486Z,10.02
2023-01-19T22:38:12.096Z,11.30
2023-01-19T22:41:01.101Z,13.07
2023-01-19T22:43:49.156Z,10.88
2023-01-19T22:46:37.966Z,13.20
2023-01-19T22:49:25.415Z,13.18
2023-01-19T22:52:12.995Z,12.38
2023-01-19T22:55:00.631Z,12.50
2023-01-19T22:57:49.269Z,12.77
2023-01-19T23:00:36.785Z,10.95
2023-01-19T23:03:24.519Z,12.55
2023-01-19T23:06:13.906Z,12.77
2023-01-19T23:09:02.188Z,10.55
2023-01-19T23:11:51.340Z,12.30
2023-01-19T23:14:40.052Z,11.88
2023-01-19T23:17:27.724Z,12.65
2023-01-19T23:20:15.541Z,13.88
2023-01-19T23:23:02.985Z,13.05
2023-01-19T23:25:50.582Z,11.82
2023-01-19T23:28:39.412Z,13.05
2023-01-19T23:31:46.558Z,12.90
2023-01-19T23:34:33.736Z,13.43
2023-01-19T23:37:21.370Z,13.23
2023-01-19T23:40:10.858Z,12.07
2023-01-19T23:42:58.245Z,11.85
2023-01-19T23:45:45.786Z,13.63
2023-01-19T23:48:36.433Z,13.35
2023-01-19T23:51:25.990Z,13.02
2023-01-19T23:54:13.595Z,12.73
2023-01-19T23:57:01.227Z,12.38
2023-01-19T23:59:48.598Z,13.30
